TimePST,TemperatureF,Dew PointF,Humidity,Sea Level PressureIn,VisibilityMPH,Wind Direction,Wind SpeedMPH,Gust SpeedMPH,PrecipitationIn,Events,Conditions,WindDirDegrees,DateUTC
12:05 AM,30.2,26.6,86,-9999,0.2,Calm,Calm,-,N/A,Fog,Light Freezing Fog,0,2013-01-22 08:05:00
12:14 AM,30.2,28.4,93,-9999,0.5,ESE,4.6,-,N/A,Fog,Light Freezing Fog,110,2013-01-22 08:14:00
12:53 AM,28.9,27.0,92,-9999,0.5,Calm,Calm,-,N/A,Fog,Light Freezing Fog,0,2013-01-22 08:53:00
1:00 AM,28.4,28.4,100,-9999,0.2,SSE,3.5,-,N/A,Fog,Light Freezing Fog,150,2013-01-22 09:00:00
1:07 AM,28.4,26.6,93,-9999,0.5,Calm,Calm,-,N/A,Fog,Light Freezing Fog,0,2013-01-22 09:07:00
1:27 AM,28.4,26.6,93,-9999,0.2,Calm,Calm,-,N/A,Fog,Light Freezing Fog,0,2013-01-22 09:27:00
1:38 AM,28.4,26.6,93,-9999,0.5,Calm,Calm,-,N/A,Fog,Light Freezing Fog,0,2013-01-22 09:38:00
1:53 AM,28.0,27.0,96,-9999,0.2,Calm,Calm,-,N/A,Fog,Light Freezing Fog,0,2013-01-22 09:53:00
2:05 AM,28.4,26.6,93,-9999,0.8,Calm,Calm,-,N/A,,Mist,0,2013-01-22 10:05:00
2:14 AM,28.4,24.8,86,-9999,1.2,Calm,Calm,-,N/A,,Overcast,0,2013-01-22 10:14:00
2:21 AM,28.4,26.6,93,-9999,0.2,Calm,Calm,-,N/A,Fog,Light Freezing Fog,0,2013-01-22 10:21:00
2:46 AM,28.4,24.8,86,-9999,0.2,Calm,Calm,-,N/A,Fog,Light Freezing Fog,0,2013-01-22 10:46:00
2:53 AM,28.0,25.0,88,-9999,0.2,Calm,Calm,-,N/A,Fog,Light Freezing Fog,0,2013-01-22 10:53:00
3:16 AM,28.4,26.6,93,-9999,0.2,Calm,Calm,-,N/A,Fog,Light Freezing Fog,0,2013-01-22 11:16:00
3:36 AM,28.4,26.6,93,-9999,1.0,Calm,Calm,-,N/A,,Mist,0,2013-01-22 11:36:00
3:49 AM,28.4,26.6,93,-9999,0.5,Calm,Calm,-,N/A,Fog,Light Freezing Fog,0,2013-01-22 11:49:00
3:53 AM,28.9,26.1,89,-9999,0.5,Calm,Calm,-,N/A,Fog,Light Freezing Fog,0,2013-01-22 11:53:00
3:58 AM,28.4,26.6,93,-9999,1.2,Calm,Calm,-,N/A,,Scattered Clouds,0,2013-01-22 11:58:00
4:01 AM,30.2,26.6,86,-9999,3.0,Calm,Calm,-,N/A,,Scattered Clouds,0,2013-01-22 12:01:00
4:53 AM,28.9,26.1,89,-9999,10.0,Calm,Calm,-,N/A,,Clear,0,2013-01-22 12:53:00
5:32 AM,28.4,24.8,86,-9999,2.0,Calm,Calm,-,N/A,,Partly Cloudy,0,2013-01-22 13:32:00
5:34 AM,28.4,24.8,86,-9999,0.8,Calm,Calm,-,N/A,,Mist,0,2013-01-22 13:34:00
5:36 AM,28.4,24.8,86,-9999,0.2,Calm,Calm,-,N/A,Fog,Light Freezing Fog,0,2013-01-22 13:36:00
5:50 AM,28.4,26.6,93,-9999,0.2,Calm,Calm,-,N/A,Fog,Light Freezing Fog,0,2013-01-22 13:50:00
5:53 AM,28.0,25.0,88,-9999,0.2,Calm,Calm,-,N/A,Fog,Light Freezing Fog,0,2013-01-22 13:53:00
6:11 AM,28.4,24.8,86,-9999,1.0,Calm,Calm,-,N/A,,Mist,0,2013-01-22 14:11:00
6:21 AM,28.4,26.6,93,-9999,0.2,Calm,Calm,-,N/A,Fog,Light Freezing Fog,0,2013-01-22 14:21:00
6:38 AM,28.4,24.8,86,-9999,0.8,Calm,Calm,-,N/A,,Mist,0,2013-01-22 14:38:00
6:46 AM,28.4,24.8,86,-9999,1.5,Calm,Calm,-,N/A,,Partly Cloudy,0,2013-01-22 14:46:00
6:51 AM,28.4,24.8,86,-9999,3.0,Calm,Calm,-,N/A,,Partly Cloudy,0,2013-01-22 14:51:00
6:53 AM,28.0,25.0,88,-9999,10.0,Calm,Calm,-,N/A,,Partly Cloudy,0,2013-01-22 14:53:00
7:53 AM,28.0,24.1,85,-9999,9.0,Calm,Calm,-,N/A,,Scattered Clouds,0,2013-01-22 15:53:00
8:03 AM,28.4,24.8,86,-9999,4.0,Calm,Calm,-,N/A,,Clear,0,2013-01-22 16:03:00
8:05 AM,28.4,24.8,86,-9999,1.5,Calm,Calm,-,N/A,,Clear,0,2013-01-22 16:05:00
8:11 AM,28.4,26.6,93,-9999,0.8,Calm,Calm,-,N/A,,Clear,0,2013-01-22 16:11:00
8:15 AM,28.4,24.8,86,-9999,10.0,ESE,3.5,-,N/A,,Clear,110,2013-01-22 16:15:00
8:53 AM,30.0,27.0,88,-9999,10.0,Calm,Calm,-,N/A,,Clear,0,2013-01-22 16:53:00
9:53 AM,30.9,28.0,89,30.08,10.0,SSE,5.8,-,N/A,,Clear,160,2013-01-22 17:53:00
10:53 AM,34.0,30.9,89,30.07,10.0,Calm,Calm,-,N/A,,Clear,0,2013-01-22 18:53:00
11:53 AM,35.1,32.0,89,30.06,10.0,Calm,Calm,-,N/A,,Clear,0,2013-01-22 19:53:00
12:53 PM,36.0,34.0,93,30.04,4.0,Calm,Calm,-,N/A,,Clear,0,2013-01-22 20:53:00
1:53 PM,41.0,30.9,67,30.02,10.0,Calm,Calm,-,N/A,,Clear,0,2013-01-22 21:53:00
2:53 PM,41.0,30.9,67,30.00,10.0,South,3.5,-,N/A,,Clear,180,2013-01-22 22:53:00
3:53 PM,42.1,28.0,58,29.97,10.0,Variable,3.5,-,N/A,,Clear,0,2013-01-22 23:53:00
4:53 PM,39.9,28.0,63,29.97,10.0,South,6.9,-,N/A,,Clear,170,2013-01-23 00:53:00
5:53 PM,39.0,28.0,65,29.97,10.0,South,5.8,-,N/A,,Clear,170,2013-01-23 01:53:00
6:53 PM,41.0,26.1,55,29.96,10.0,SSE,6.9,-,N/A,,Clear,150,2013-01-23 02:53:00
7:53 PM,41.0,27.0,57,29.94,10.0,South,6.9,-,N/A,,Clear,170,2013-01-23 03:53:00
8:53 PM,42.1,25.0,51,29.94,10.0,Variable,3.5,-,N/A,,Clear,0,2013-01-23 04:53:00
9:53 PM,44.1,23.0,43,29.92,10.0,Variable,4.6,-,N/A,,Clear,0,2013-01-23 05:53:00
10:53 PM,44.1,26.1,49,29.91,10.0,South,4.6,-,N/A,,Overcast,190,2013-01-23 06:53:00
11:53 PM,39.9,28.0,63,29.94,10.0,Calm,Calm,-,N/A,,Overcast,0,2013-01-23 07:53:00